createdAt,value
2019-02-20T00:01:33.477Z,10.30
2019-02-20T00:04:00.856Z,11.07
2019-02-20T00:06:28.346Z,9.67
2019-02-20T00:08:55.694Z,6.87
2019-02-20T00:11:22.983Z,8.13
2019-02-20T00:13:50.365Z,10.03
2019-02-20T00:16:17.689Z,8.80
2019-02-20T00:18:44.962Z,11.53
2019-02-20T00:21:12.488Z,5.70
2019-02-20T00:23:39.833Z,12.63
2019-02-20T00:26:07.098Z,14.73
2019-02-20T00:28:34.361Z,5.27
2019-02-20T00:31:01.607Z,8.87
2019-02-20T00:33:28.885Z,7.50
2019-02-20T00:35:56.159Z,10.37
2019-02-20T00:38:23.438Z,8.77
2019-02-20T00:40:50.673Z,10.67
2019-02-20T00:43:17.955Z,12.20
2019-02-20T00:45:58.841Z,7.47
2019-02-20T00:48:30.654Z,6.00
2019-02-20T00:50:59.570Z,12.27
2019-02-20T00:53:28.451Z,8.23
2019-02-20T00:55:55.726Z,10.10
2019-02-20T00:58:23.004Z,8.80
2019-02-20T01:00:50.513Z,10.20
2019-02-20T01:03:18.043Z,8.50
2019-02-20T01:05:45.285Z,10.17
2019-02-20T01:08:12.558Z,6.80
2019-02-20T01:10:39.798Z,7.53
2019-02-20T01:13:07.082Z,12.87
2019-02-20T01:15:34.334Z,10.53
2019-02-20T01:18:01.611Z,8.53
2019-02-20T01:20:28.877Z,8.90
2019-02-20T01:22:59.933Z,13.53
2019-02-20T01:25:25.115Z,7.67
2019-02-20T01:27:52.388Z,11.17
2019-02-20T01:30:19.919Z,6.27
2019-02-20T01:32:47.164Z,10.70
2019-02-20T01:35:14.430Z,7.00
2019-02-20T01:37:41.708Z,14.23
2019-02-20T01:40:09.018Z,7.57
2019-02-20T01:42:36.294Z,8.67
2019-02-20T01:45:03.806Z,8.80
2019-02-20T01:47:31.077Z,13.03
2019-02-20T01:49:58.369Z,10.00
2019-02-20T01:52:25.611Z,8.47
2019-02-20T01:54:52.858Z,11.07
2019-02-20T01:57:20.146Z,11.70
2019-02-20T01:59:47.414Z,15.63
2019-02-20T02:02:14.657Z,11.37
2019-02-20T02:04:41.946Z,11.23
2019-02-20T02:07:09.187Z,9.00
2019-02-20T02:09:36.503Z,9.07
2019-02-20T02:12:03.768Z,9.40
2019-02-20T02:14:31.287Z,11.27
2019-02-20T02:16:58.827Z,9.50
2019-02-20T02:19:26.066Z,7.97
2019-02-20T02:21:53.335Z,10.50
2019-02-20T02:24:20.587Z,6.47
2019-02-20T02:26:47.867Z,11.63
2019-02-20T02:29:15.146Z,6.83
2019-02-20T02:31:42.410Z,7.07
2019-02-20T02:34:09.691Z,9.03
2019-02-20T02:36:36.948Z,12.60
2019-02-20T02:39:04.774Z,9.30
2019-02-20T02:41:32.176Z,10.23
2019-02-20T02:43:59.442Z,12.47
2019-02-20T02:46:26.697Z,9.37
2019-02-20T02:48:53.969Z,8.40
2019-02-20T02:51:21.244Z,10.60
2019-02-20T02:53:48.482Z,9.10
2019-02-20T02:56:15.760Z,9.40
2019-02-20T02:58:43.005Z,12.23
2019-02-20T03:01:10.513Z,12.20
2019-02-20T03:03:37.791Z,13.90
2019-02-20T03:06:05.338Z,11.43
2019-02-20T03:08:32.607Z,8.07
2019-02-20T03:10:59.874Z,7.60
2019-02-20T03:13:27.117Z,6.93
2019-02-20T03:15:54.394Z,12.43
2019-02-20T03:18:21.721Z,8.63
2019-02-20T03:20:48.990Z,11.87
2019-02-20T03:23:16.242Z,14.47
2019-02-20T03:25:43.516Z,8.00
2019-02-20T03:28:10.829Z,12.00
2019-02-20T03:30:38.106Z,13.87
2019-02-20T03:33:05.363Z,11.10
2019-02-20T03:35:32.698Z,10.80
2019-02-20T03:37:59.978Z,9.50
2019-02-20T03:40:27.217Z,10.40
2019-02-20T03:42:54.470Z,7.97
2019-02-20T03:45:21.739Z,8.17
2019-02-20T03:47:49.245Z,12.00
2019-02-20T03:50:16.587Z,10.40
2019-02-20T03:52:43.858Z,9.30
2019-02-20T03:55:11.134Z,11.30
2019-02-20T03:57:38.450Z,13.20
2019-02-20T04:00:07.453Z,12.57
2019-02-20T04:02:34.728Z,10.73
2019-02-20T04:05:02.002Z,6.70
2019-02-20T04:07:29.317Z,7.57
2019-02-20T04:09:56.560Z,8.40
2019-02-20T04:12:24.099Z,9.70
2019-02-20T04:14:51.594Z,14.50
2019-02-20T04:17:18.838Z,9.07
2019-02-20T04:19:46.123Z,13.23
2019-02-20T04:22:13.367Z,13.10
2019-02-20T04:24:40.876Z,9.53
2019-02-20T04:27:08.404Z,9.53
2019-02-20T04:29:35.677Z,7.43
2019-02-20T04:32:02.920Z,8.77
2019-02-20T04:34:30.410Z,8.97
2019-02-20T04:36:57.686Z,12.97
2019-02-20T04:39:24.980Z,9.97
2019-02-20T04:41:52.288Z,10.03
2019-02-20T04:44:19.570Z,11.37
2019-02-20T04:46:46.815Z,7.97
2019-02-20T04:49:14.106Z,9.10
2019-02-20T04:51:41.353Z,12.77
2019-02-20T04:54:13.316Z,10.77
2019-02-20T04:56:37.612Z,12.73
2019-02-20T04:59:04.862Z,10.63
2019-02-20T05:01:32.178Z,8.03
2019-02-20T05:03:59.458Z,12.20
2019-02-20T05:06:26.740Z,13.57
2019-02-20T05:08:54.273Z,8.63
2019-02-20T05:11:21.594Z,12.47
2019-02-20T05:13:48.880Z,10.67
2019-02-20T05:16:16.131Z,11.43
2019-02-20T05:18:43.406Z,11.40
2019-02-20T05:21:10.727Z,7.83
2019-02-20T05:23:37.976Z,15.43
2019-02-20T05:26:05.314Z,10.87
2019-02-20T05:28:32.590Z,9.67
2019-02-20T05:31:00.137Z,11.00
2019-02-20T05:33:27.452Z,10.80
2019-02-20T05:35:54.733Z,9.07
2019-02-20T05:38:22.070Z,9.27
2019-02-20T05:40:49.320Z,11.47
2019-02-20T05:43:16.590Z,10.03
2019-02-20T05:45:43.869Z,9.53
2019-02-20T05:48:11.387Z,9.97
2019-02-20T05:50:38.662Z,12.90
2019-02-20T05:53:06.100Z,11.77
2019-02-20T05:55:33.711Z,21.67
2019-02-20T05:58:01.278Z,12.20
2019-02-20T06:00:28.666Z,14.03
2019-02-20T06:02:55.953Z,15.27
2019-02-20T06:05:23.302Z,21.87
2019-02-20T06:07:50.574Z,18.93
2019-02-20T06:10:17.927Z,14.40
2019-02-20T06:12:45.222Z,16.17
2019-02-20T06:15:12.548Z,18.33
2019-02-20T06:17:39.793Z,11.77
2019-02-20T06:20:07.858Z,17.00
2019-02-20T06:22:35.098Z,12.57
2019-02-20T06:25:02.424Z,13.30
2019-02-20T06:27:29.694Z,19.10
2019-02-20T06:29:56.949Z,24.77
2019-02-20T06:32:24.242Z,17.30
2019-02-20T06:34:51.745Z,17.53
2019-02-20T06:37:19.011Z,17.13
2019-02-20T06:39:46.270Z,13.83
2019-02-20T06:42:13.808Z,28.37
2019-02-20T06:44:41.129Z,12.60
2019-02-20T06:47:08.419Z,15.10
2019-02-20T06:49:35.922Z,19.07
2019-02-20T06:52:03.169Z,15.77
2019-02-20T06:54:30.455Z,12.97
2019-02-20T06:56:57.739Z,18.93
2019-02-20T06:59:24.988Z,17.60
2019-02-20T07:01:52.253Z,21.60
2019-02-20T07:04:19.506Z,17.40
2019-02-20T07:07:00.391Z,16.30
2019-02-20T07:09:29.178Z,21.53
2019-02-20T07:12:00.657Z,11.50
2019-02-20T07:14:29.481Z,17.50
2019-02-20T07:16:58.292Z,15.03
2019-02-20T07:19:27.076Z,14.60
2019-02-20T07:22:04.922Z,18.37
2019-02-20T07:24:33.764Z,23.60
2019-02-20T07:27:05.554Z,19.80
2019-02-20T07:29:46.426Z,15.53
2019-02-20T07:32:17.018Z,16.87
2019-02-20T07:34:44.368Z,20.53
2019-02-20T07:37:11.614Z,19.30
2019-02-20T07:39:38.890Z,19.13
2019-02-20T07:42:06.147Z,18.50
2019-02-20T07:44:33.423Z,17.67
2019-02-20T07:47:00.851Z,19.43
2019-02-20T07:49:28.134Z,22.07
2019-02-20T07:51:55.629Z,20.87
2019-02-20T07:54:23.162Z,21.07
2019-02-20T07:56:50.406Z,23.83
2019-02-20T07:59:17.694Z,26.10
2019-02-20T08:01:44.983Z,23.50
2019-02-20T08:04:12.305Z,22.40
2019-02-20T08:06:39.554Z,22.33
2019-02-20T08:09:06.879Z,19.43
2019-02-20T08:11:34.154Z,28.23
2019-02-20T08:14:01.429Z,21.97
2019-02-20T08:16:28.682Z,23.83
2019-02-20T08:18:55.978Z,21.77
2019-02-20T08:21:23.294Z,25.90
2019-02-20T08:23:50.560Z,22.63
2019-02-20T08:26:17.830Z,21.00
2019-02-20T08:28:45.119Z,27.73
2019-02-20T08:31:12.373Z,20.90
2019-02-20T08:33:39.655Z,24.53
2019-02-20T08:36:06.940Z,25.60
2019-02-20T08:38:34.197Z,25.23
2019-02-20T08:41:01.456Z,28.37
2019-02-20T08:43:28.738Z,23.70
2019-02-20T08:45:56.023Z,24.00
2019-02-20T08:48:23.529Z,24.87
2019-02-20T08:50:50.815Z,25.30
2019-02-20T08:53:18.070Z,20.87
2019-02-20T08:55:45.361Z,25.23
2019-02-20T08:58:12.620Z,24.23
2019-02-20T09:00:39.869Z,22.80
2019-02-20T09:03:07.175Z,25.53
2019-02-20T09:05:34.422Z,28.80
2019-02-20T09:08:01.691Z,25.93
2019-02-20T09:10:29.038Z,26.17
2019-02-20T09:12:56.317Z,21.50
2019-02-20T09:15:23.593Z,23.57
2019-02-20T09:17:51.219Z,21.83
2019-02-20T09:20:18.547Z,23.97
2019-02-20T09:22:45.801Z,32.37
2019-02-20T09:25:19.589Z,26.50
2019-02-20T09:27:42.743Z,27.17
2019-02-20T09:30:11.271Z,23.50
2019-02-20T09:32:39.301Z,25.90
2019-02-20T09:35:07.333Z,22.57
2019-02-20T09:37:34.606Z,24.13
2019-02-20T09:40:01.857Z,26.87
2019-02-20T09:42:29.315Z,23.17
2019-02-20T09:44:56.596Z,23.63
2019-02-20T09:47:23.841Z,29.77
2019-02-20T09:49:51.130Z,23.17
2019-02-20T09:52:18.461Z,31.40
2019-02-20T09:54:45.738Z,31.00
2019-02-20T09:57:13.025Z,27.60
2019-02-20T09:59:40.345Z,22.10
2019-02-20T10:02:07.633Z,27.60
2019-02-20T10:04:34.890Z,23.40
2019-02-20T10:07:02.157Z,28.63
2019-02-20T10:09:29.437Z,28.53
2019-02-20T10:11:56.688Z,25.80
2019-02-20T10:14:23.961Z,26.40
2019-02-20T10:16:51.242Z,24.40
2019-02-20T10:19:18.506Z,21.57
2019-02-20T10:21:45.779Z,25.20
2019-02-20T10:24:13.030Z,19.17
2019-02-20T10:26:40.283Z,20.87
2019-02-20T10:29:07.567Z,26.00
2019-02-20T10:31:34.818Z,22.73
2019-02-20T10:34:02.110Z,26.83
2019-02-20T10:36:29.422Z,22.43
2019-02-20T10:38:56.669Z,32.93
2019-02-20T10:41:23.956Z,26.03
2019-02-20T10:43:51.231Z,36.40
2019-02-20T10:46:18.758Z,32.23
2019-02-20T10:48:46.262Z,26.00
2019-02-20T10:51:13.550Z,29.43
2019-02-20T10:53:41.089Z,23.67
2019-02-20T10:56:09.639Z,24.00
2019-02-20T10:58:37.046Z,23.13
2019-02-20T11:01:05.129Z,25.70
2019-02-20T11:03:32.406Z,23.53
2019-02-20T11:05:59.704Z,22.90
2019-02-20T11:08:26.953Z,24.13
2019-02-20T11:10:54.201Z,17.50
2019-02-20T11:13:21.473Z,30.10
2019-02-20T11:15:48.759Z,27.53
2019-02-20T11:18:16.026Z,28.57
2019-02-20T11:20:48.415Z,20.83
2019-02-20T11:23:12.273Z,26.10
2019-02-20T11:25:39.562Z,23.40
2019-02-20T11:28:06.814Z,26.13
2019-02-20T11:30:34.094Z,29.63
2019-02-20T11:33:03.333Z,22.03
2019-02-20T11:35:30.345Z,25.00
2019-02-20T11:37:57.597Z,22.37
2019-02-20T11:40:24.870Z,21.17
2019-02-20T11:42:52.155Z,22.33
2019-02-20T11:45:19.665Z,21.67
2019-02-20T11:47:46.950Z,20.53
2019-02-20T11:50:14.274Z,21.90
2019-02-20T11:52:42.117Z,20.80
2019-02-20T11:55:10.259Z,19.37
2019-02-20T11:57:37.615Z,18.80
2019-02-20T12:00:09.070Z,19.73
2019-02-20T12:02:37.661Z,13.83
2019-02-20T12:05:05.654Z,22.90
2019-02-20T12:07:32.926Z,17.67
2019-02-20T12:10:00.286Z,19.63
2019-02-20T12:12:27.820Z,14.87
2019-02-20T12:14:55.095Z,15.87
2019-02-20T12:17:22.343Z,13.80
2019-02-20T12:19:49.626Z,15.60
2019-02-20T12:22:16.911Z,16.03
2019-02-20T12:24:44.235Z,17.20
2019-02-20T12:27:11.510Z,11.77
2019-02-20T12:29:38.786Z,17.03
2019-02-20T12:32:06.143Z,13.90
2019-02-20T12:34:33.428Z,12.13
2019-02-20T12:37:00.665Z,13.60
2019-02-20T12:39:27.934Z,19.20
2019-02-20T12:41:55.212Z,16.03
2019-02-20T12:44:22.521Z,17.60
2019-02-20T12:46:49.802Z,17.07
2019-02-20T12:49:17.346Z,18.80
2019-02-20T12:51:44.601Z,14.90
2019-02-20T12:54:11.878Z,19.47
2019-02-20T12:56:43.858Z,13.53
2019-02-20T12:59:08.156Z,16.57
2019-02-20T13:01:35.451Z,13.23
2019-02-20T13:04:03.059Z,16.70
2019-02-20T13:06:30.329Z,16.30
2019-02-20T13:08:57.614Z,18.87
2019-02-20T13:11:24.860Z,13.60
2019-02-20T13:13:52.151Z,19.07
2019-02-20T13:16:19.397Z,19.13
2019-02-20T13:18:46.646Z,16.73
2019-02-20T13:21:13.923Z,13.47
2019-02-20T13:23:41.166Z,13.60
2019-02-20T13:26:08.448Z,13.40
2019-02-20T13:28:35.700Z,11.43
2019-02-20T13:31:02.969Z,11.80
2019-02-20T13:33:30.226Z,14.73
2019-02-20T13:35:57.495Z,11.47
2019-02-20T13:38:24.740Z,16.33
2019-02-20T13:40:52.024Z,13.73
2019-02-20T13:43:19.269Z,12.77
2019-02-20T13:45:46.799Z,13.20
2019-02-20T13:48:14.218Z,12.33
2019-02-20T13:50:41.473Z,15.00
2019-02-20T13:53:08.884Z,14.43
2019-02-20T13:55:36.127Z,16.57
2019-02-20T13:58:03.486Z,17.37
2019-02-20T14:00:30.818Z,12.60
2019-02-20T14:02:58.433Z,11.63
2019-02-20T14:05:25.677Z,13.83
2019-02-20T14:07:53.041Z,16.53
2019-02-20T14:10:20.319Z,16.43
2019-02-20T14:12:47.855Z,12.97
2019-02-20T14:15:15.267Z,15.23
2019-02-20T14:17:42.515Z,13.40
2019-02-20T14:20:10.548Z,13.20
2019-02-20T14:22:38.173Z,15.43
2019-02-20T14:25:07.092Z,11.10
2019-02-20T14:27:34.447Z,14.50
2019-02-20T14:30:01.781Z,13.83
2019-02-20T14:32:29.050Z,10.93
2019-02-20T14:34:56.335Z,11.63
2019-02-20T14:37:23.590Z,13.23
2019-02-20T14:39:51.708Z,14.80
2019-02-20T14:42:19.042Z,9.00
2019-02-20T14:44:46.366Z,8.70
2019-02-20T14:47:13.714Z,16.50
2019-02-20T14:49:41.036Z,12.03
2019-02-20T14:52:08.554Z,9.70
2019-02-20T14:54:35.873Z,12.20
2019-02-20T14:57:03.152Z,14.00
2019-02-20T14:59:30.674Z,8.53
2019-02-20T15:01:58.092Z,9.90
2019-02-20T15:04:25.423Z,11.60
2019-02-20T15:06:53.039Z,8.60
2019-02-20T15:09:20.281Z,8.63
2019-02-20T15:11:47.602Z,14.87
2019-02-20T15:14:16.150Z,8.03
2019-02-20T15:16:43.621Z,7.57
2019-02-20T15:19:10.909Z,10.03
2019-02-20T15:21:38.224Z,7.13
2019-02-20T15:24:05.490Z,7.87
2019-02-20T15:26:32.774Z,11.43
2019-02-20T15:29:00.021Z,7.07
2019-02-20T15:31:33.507Z,6.70
2019-02-20T15:33:56.329Z,10.90
2019-02-20T15:36:24.275Z,10.77
2019-02-20T15:38:51.657Z,9.60
2019-02-20T15:41:18.950Z,10.40
2019-02-20T15:43:46.262Z,9.30
2019-02-20T15:46:13.519Z,7.63
2019-02-20T15:48:40.810Z,8.87
2019-02-20T15:51:08.107Z,6.87
2019-02-20T15:53:35.370Z,9.50
2019-02-20T15:56:02.817Z,8.43
2019-02-20T15:58:30.093Z,12.03
2019-02-20T16:00:57.509Z,6.70
2019-02-20T16:03:24.785Z,14.40
2019-02-20T16:05:52.146Z,11.33
2019-02-20T16:08:19.411Z,12.83
2019-02-20T16:10:46.823Z,10.30
2019-02-20T16:13:14.470Z,11.33
2019-02-20T16:15:41.927Z,11.77
2019-02-20T16:18:09.230Z,12.90
2019-02-20T16:20:36.571Z,24.73
2019-02-20T16:23:03.852Z,15.93
2019-02-20T16:25:31.170Z,13.40
2019-02-20T16:27:58.700Z,14.70
2019-02-20T16:30:26.021Z,14.67
2019-02-20T16:32:53.838Z,15.23
2019-02-20T16:35:21.158Z,17.10
2019-02-20T16:37:48.513Z,16.00
2019-02-20T16:40:15.826Z,14.50
2019-02-20T16:42:43.106Z,15.27
2019-02-20T16:45:20.282Z,19.37
2019-02-20T16:47:47.554Z,15.47
2019-02-20T16:50:14.948Z,15.63
2019-02-20T16:52:42.221Z,19.47
2019-02-20T16:55:09.470Z,17.53
2019-02-20T16:57:36.770Z,12.93
2019-02-20T17:00:05.492Z,11.43
2019-02-20T17:02:32.749Z,15.00
2019-02-20T17:05:00.293Z,18.33
2019-02-20T17:07:28.480Z,15.13
2019-02-20T17:09:55.826Z,10.63
2019-02-20T17:12:23.101Z,11.00
2019-02-20T17:14:50.354Z,13.30
2019-02-20T17:17:17.887Z,12.45
2019-02-20T17:19:45.139Z,11.90
2019-02-20T17:22:12.405Z,13.77
2019-02-20T17:24:40.025Z,16.10
2019-02-20T17:27:07.308Z,13.53
2019-02-20T17:29:34.634Z,13.67
2019-02-20T17:32:02.049Z,12.87
2019-02-20T17:34:29.303Z,11.80
2019-02-20T17:36:56.659Z,9.83
2019-02-20T17:39:23.903Z,11.80
2019-02-20T17:41:51.174Z,17.63
2019-02-20T17:44:18.697Z,12.53
2019-02-20T17:46:46.050Z,8.43
2019-02-20T17:49:13.295Z,9.70
2019-02-20T17:51:40.825Z,9.30
2019-02-20T17:54:08.415Z,13.03
2019-02-20T17:56:35.767Z,12.40
2019-02-20T17:59:03.018Z,8.80
2019-02-20T18:01:30.511Z,14.47
2019-02-20T18:03:57.780Z,9.97
2019-02-20T18:06:25.055Z,11.53
2019-02-20T18:08:52.389Z,10.73
2019-02-20T18:11:19.678Z,11.27
2019-02-20T18:13:47.153Z,9.43
2019-02-20T18:16:14.478Z,11.63
2019-02-20T18:18:42.009Z,13.63
2019-02-20T18:21:09.442Z,11.10
2019-02-20T18:23:36.698Z,10.57
2019-02-20T18:26:04.175Z,9.43
2019-02-20T18:28:31.446Z,10.17
2019-02-20T18:30:58.799Z,10.90
2019-02-20T18:33:26.124Z,10.57
2019-02-20T18:35:53.702Z,8.80
2019-02-20T18:38:21.546Z,15.83
2019-02-20T18:40:48.849Z,11.67
2019-02-20T18:43:16.132Z,12.53
2019-02-20T18:45:43.370Z,7.90
2019-02-20T18:48:10.977Z,12.47
2019-02-20T18:50:38.254Z,10.07
2019-02-20T18:53:05.525Z,14.03
2019-02-20T18:55:32.906Z,12.80
2019-02-20T18:58:00.163Z,13.43
2019-02-20T19:00:27.935Z,11.60
2019-02-20T19:02:55.220Z,12.20
2019-02-20T19:05:22.571Z,10.57
2019-02-20T19:07:49.984Z,8.67
2019-02-20T19:10:27.869Z,11.53
2019-02-20T19:12:56.710Z,10.70
2019-02-20T19:15:31.190Z,13.13
2019-02-20T19:18:00.312Z,12.57
2019-02-20T19:20:31.761Z,12.97
2019-02-20T19:23:02.385Z,16.57
2019-02-20T19:25:31.478Z,10.70
2019-02-20T19:28:00.334Z,13.93
2019-02-20T19:30:44.407Z,13.20
2019-02-20T19:33:13.250Z,16.20
2019-02-20T19:35:42.080Z,11.47
2019-02-20T19:38:19.795Z,12.80
2019-02-20T19:40:54.738Z,14.60
2019-02-20T19:43:35.700Z,9.90
2019-02-20T19:46:04.490Z,11.27
2019-02-20T19:48:48.658Z,11.00
2019-02-20T19:51:23.514Z,12.23
2019-02-20T19:53:52.409Z,10.60
2019-02-20T19:56:24.249Z,11.53
2019-02-20T19:58:58.975Z,11.77
2019-02-20T20:01:36.568Z,13.20
2019-02-20T20:04:08.264Z,13.63
2019-02-20T20:06:42.784Z,9.23
2019-02-20T20:09:11.562Z,11.20
2019-02-20T20:11:46.088Z,10.17
2019-02-20T20:14:14.926Z,12.10
2019-02-20T20:16:47.362Z,10.67
2019-02-20T20:19:32.774Z,11.33
2019-02-20T20:22:01.601Z,12.53
2019-02-20T20:24:46.706Z,12.23
2019-02-20T20:27:27.307Z,10.57
2019-02-20T20:29:56.204Z,11.60
2019-02-20T20:32:27.717Z,12.90
2019-02-20T20:35:05.618Z,11.43
2019-02-20T20:37:34.423Z,7.67
2019-02-20T20:40:03.214Z,13.57
2019-02-20T20:42:37.760Z,9.40
2019-02-20T20:45:22.997Z,13.60
2019-02-20T20:47:51.822Z,10.60
2019-02-20T20:50:36.911Z,12.00
2019-02-20T20:53:08.426Z,12.80
2019-02-20T20:55:45.884Z,10.70
2019-02-20T20:58:17.601Z,9.67
2019-02-20T21:01:02.701Z,12.77
2019-02-20T21:03:31.565Z,9.63
2019-02-20T21:06:15.201Z,11.63
2019-02-20T21:08:43.990Z,8.90
2019-02-20T21:11:27.876Z,11.97
2019-02-20T21:13:59.333Z,10.47
2019-02-20T21:16:28.138Z,11.23
2019-02-20T21:18:59.941Z,12.03
2019-02-20T21:21:34.381Z,11.90
2019-02-20T21:24:19.623Z,14.23
2019-02-20T21:27:00.279Z,10.50
2019-02-20T21:29:34.995Z,9.80
2019-02-20T21:32:06.730Z,10.90
2019-02-20T21:34:38.339Z,12.73
2019-02-20T21:37:10.031Z,14.43
2019-02-20T21:39:39.117Z,11.37
2019-02-20T21:42:07.929Z,12.87
2019-02-20T21:44:42.629Z,9.47
2019-02-20T21:47:29.276Z,11.00
2019-02-20T21:50:00.919Z,8.67
2019-02-20T21:52:35.690Z,8.93
2019-02-20T21:55:20.713Z,11.87
2019-02-20T21:57:49.747Z,8.20
2019-02-20T22:00:18.568Z,10.03
2019-02-20T22:02:47.350Z,10.50
2019-02-20T22:05:16.391Z,10.57
2019-02-20T22:08:03.246Z,9.13
2019-02-20T22:10:32.073Z,8.13
2019-02-20T22:13:04.040Z,13.83
2019-02-20T22:15:35.746Z,7.90
2019-02-20T22:18:10.586Z,9.23
2019-02-20T22:20:51.458Z,9.30
2019-02-20T22:23:20.507Z,8.60
2019-02-20T22:25:49.310Z,8.10
2019-02-20T22:28:21.007Z,8.60
2019-02-20T22:31:01.689Z,8.53
2019-02-20T22:33:30.504Z,9.97
2019-02-20T22:35:59.279Z,8.20
2019-02-20T22:38:44.718Z,12.47
2019-02-20T22:41:19.360Z,8.30
2019-02-20T22:43:51.074Z,8.17
2019-02-20T22:46:33.770Z,8.53
2019-02-20T22:49:02.440Z,13.80
2019-02-20T22:51:34.125Z,10.83
2019-02-20T22:54:14.942Z,8.53
2019-02-20T22:56:43.983Z,11.27
2019-02-20T22:59:29.390Z,8.47
2019-02-20T23:02:03.946Z,11.70
2019-02-20T23:04:34.924Z,9.60
2019-02-20T23:07:03.266Z,10.53
2019-02-20T23:09:34.960Z,16.77
2019-02-20T23:12:04.350Z,16.80
2019-02-20T23:14:39.186Z,9.63
2019-02-20T23:17:06.598Z,8.67
2019-02-20T23:19:33.859Z,10.27
2019-02-20T23:22:01.132Z,13.00
2019-02-20T23:24:28.408Z,12.50
2019-02-20T23:26:55.767Z,15.93
2019-02-20T23:29:23.039Z,11.33
2019-02-20T23:31:50.318Z,9.00
2019-02-20T23:34:17.597Z,10.10
2019-02-20T23:36:44.858Z,12.90
2019-02-20T23:39:12.097Z,12.13
2019-02-20T23:41:39.374Z,10.80
2019-02-20T23:44:06.661Z,10.73
2019-02-20T23:46:33.897Z,8.97
2019-02-20T23:49:01.169Z,11.43
2019-02-20T23:51:28.454Z,9.87
2019-02-20T23:53:55.733Z,11.27
2019-02-20T23:56:23.026Z,10.03
2019-02-20T23:58:50.273Z,10.10
